RYR3UX EBCI-EPWA
Flight info
| Callsign | RYR3UX |
|---|---|
| Flight time | 1h 42m |
| Altitude | 35000 |
| Route | SPI Y862 KENUM N853 ONUNE DCT TOLTA DCT MAG DCT GOVEN DCT ADVAB DCT OBOKU P150 BIMPA |
| Aircraft | B38M/M-SDE1FGHILORVWXY/HB1 |
Departure
| Time | 2026-05-04 14:23 |
|---|---|
| Airport | Brussels South Charleroi Airport (EBCI) |
Arrival
| Time | 2026-05-04 16:05 |
|---|---|
| Airport | Warsaw Chopin Airport (EPWA) |
| Time | Latitude | Longitude | Altitude | Speed | Heading |
|---|---|---|---|---|---|
| 2026-05-04 13:16 | 50.46851 | 4.47046 | 613 ft | 0 kts | 335° |
| 2026-05-04 14:13 | 50.46849 | 4.47048 | 613 ft | 2 kts | 335° |
| 2026-05-04 14:14 | 50.46834 | 4.47058 | 630 ft | 2 kts | 335° |
| 2026-05-04 14:14 | 50.46804 | 4.47070 | 625 ft | 2 kts | 41° |
| 2026-05-04 14:14 | 50.46796 | 4.47053 | 613 ft | 1 kts | 62° |
| 2026-05-04 14:15 | 50.46795 | 4.47051 | 613 ft | 0 kts | 63° |
| 2026-05-04 14:19 | 50.46800 | 4.47067 | 624 ft | 5 kts | 64° |
| 2026-05-04 14:19 | 50.46823 | 4.47144 | 617 ft | 11 kts | 65° |
| 2026-05-04 14:19 | 50.46861 | 4.47276 | 614 ft | 16 kts | 65° |
| 2026-05-04 14:19 | 50.46912 | 4.47448 | 614 ft | 19 kts | 65° |
| 2026-05-04 14:20 | 50.46925 | 4.47494 | 614 ft | 1 kts | 66° |
| 2026-05-04 14:20 | 50.46929 | 4.47509 | 619 ft | 3 kts | 66° |
| 2026-05-04 14:20 | 50.46945 | 4.47567 | 619 ft | 8 kts | 75° |
| 2026-05-04 14:21 | 50.46850 | 4.47647 | 618 ft | 17 kts | 155° |
| 2026-05-04 14:21 | 50.46833 | 4.47660 | 618 ft | 1 kts | 155° |
| 2026-05-04 14:21 | 50.46826 | 4.47665 | 620 ft | 2 kts | 155° |
| 2026-05-04 14:21 | 50.46786 | 4.47694 | 614 ft | 13 kts | 157° |
| 2026-05-04 14:22 | 50.46690 | 4.47704 | 618 ft | 14 kts | 215° |
| 2026-05-04 14:22 | 50.46652 | 4.47586 | 623 ft | 10 kts | 248° |
| 2026-05-04 14:22 | 50.46650 | 4.47580 | 622 ft | 2 kts | 248° |
| 2026-05-04 14:22 | 50.46578 | 4.47326 | 622 ft | 62 kts | 245° |
| 2026-05-04 14:23 | 50.45853 | 4.44828 | 692 ft | 174 kts | 246° |
| 2026-05-04 14:23 | 50.45369 | 4.43008 | 1281 ft | 187 kts | 245° |
| 2026-05-04 14:23 | 50.44818 | 4.41155 | 2180 ft | 186 kts | 244° |
| 2026-05-04 14:24 | 50.44238 | 4.39296 | 2791 ft | 200 kts | 245° |
| 2026-05-04 14:24 | 50.43649 | 4.37238 | 2771 ft | 216 kts | 247° |
| 2026-05-04 14:24 | 50.43028 | 4.35034 | 2796 ft | 224 kts | 246° |
| 2026-05-04 14:24 | 50.42387 | 4.32774 | 2948 ft | 229 kts | 246° |
| 2026-05-04 14:25 | 50.41733 | 4.30478 | 3072 ft | 231 kts | 246° |
| 2026-05-04 14:25 | 50.41620 | 4.25767 | 3221 ft | 228 kts | 304° |
| 2026-05-04 14:25 | 50.42793 | 4.24001 | 3340 ft | 244 kts | 330° |
| 2026-05-04 14:26 | 50.44445 | 4.23279 | 3385 ft | 254 kts | 2° |
| 2026-05-04 14:26 | 50.46123 | 4.24095 | 3473 ft | 257 kts | 34° |
| 2026-05-04 14:26 | 50.47459 | 4.25979 | 3608 ft | 262 kts | 41° |
| 2026-05-04 14:26 | 50.48853 | 4.27841 | 3712 ft | 263 kts | 40° |
| 2026-05-04 14:27 | 50.50251 | 4.29699 | 3856 ft | 264 kts | 40° |
| 2026-05-04 14:27 | 50.51657 | 4.31578 | 3966 ft | 265 kts | 40° |
| 2026-05-04 14:27 | 50.53060 | 4.33456 | 3998 ft | 265 kts | 40° |
| 2026-05-04 14:27 | 50.54444 | 4.35315 | 3998 ft | 265 kts | 40° |
| 2026-05-04 14:28 | 50.55841 | 4.37194 | 3998 ft | 265 kts | 40° |
| 2026-05-04 14:28 | 50.57243 | 4.39078 | 4038 ft | 263 kts | 40° |
| 2026-05-04 14:28 | 50.58633 | 4.40949 | 4276 ft | 264 kts | 40° |
| 2026-05-04 14:28 | 50.60033 | 4.42839 | 4534 ft | 265 kts | 40° |
| 2026-05-04 14:29 | 50.62855 | 4.46644 | 5937 ft | 268 kts | 40° |
| 2026-05-04 14:29 | 50.65739 | 4.50545 | 7592 ft | 278 kts | 40° |
| 2026-05-04 14:30 | 50.67211 | 4.52535 | 8023 ft | 282 kts | 40° |
| 2026-05-04 14:30 | 50.68701 | 4.54555 | 8085 ft | 282 kts | 40° |
| 2026-05-04 14:30 | 50.71242 | 4.59140 | 8069 ft | 280 kts | 71° |
| 2026-05-04 14:31 | 50.71449 | 4.62185 | 8312 ft | 282 kts | 98° |
| 2026-05-04 14:31 | 50.70448 | 4.68205 | 9995 ft | 289 kts | 106° |
| 2026-05-04 14:32 | 50.69242 | 4.74578 | 11023 ft | 318 kts | 107° |
| 2026-05-04 14:32 | 50.68583 | 4.77959 | 11744 ft | 324 kts | 107° |
| 2026-05-04 14:32 | 50.67911 | 4.81368 | 12603 ft | 327 kts | 107° |
| 2026-05-04 14:32 | 50.67228 | 4.84808 | 13443 ft | 331 kts | 107° |
| 2026-05-04 14:33 | 50.66534 | 4.88293 | 14238 ft | 335 kts | 108° |
| 2026-05-04 14:33 | 50.65831 | 4.91812 | 15034 ft | 338 kts | 108° |
| 2026-05-04 14:33 | 50.65124 | 4.95347 | 15837 ft | 342 kts | 108° |
| 2026-05-04 14:33 | 50.64405 | 4.98935 | 16590 ft | 346 kts | 108° |
| 2026-05-04 14:34 | 50.63676 | 5.02565 | 17353 ft | 350 kts | 109° |
| 2026-05-04 14:34 | 50.62936 | 5.06242 | 18109 ft | 354 kts | 109° |
| 2026-05-04 14:34 | 50.62188 | 5.09952 | 18751 ft | 357 kts | 109° |
| 2026-05-04 14:34 | 50.61432 | 5.13698 | 19368 ft | 361 kts | 110° |
| 2026-05-04 14:35 | 50.60665 | 5.17484 | 19989 ft | 365 kts | 110° |
| 2026-05-04 14:35 | 50.59890 | 5.21306 | 20571 ft | 369 kts | 110° |
| 2026-05-04 14:35 | 50.59106 | 5.25168 | 21167 ft | 372 kts | 111° |
| 2026-05-04 14:35 | 50.58310 | 5.29072 | 21746 ft | 376 kts | 111° |
| 2026-05-04 14:36 | 50.57513 | 5.32983 | 22318 ft | 380 kts | 111° |
| 2026-05-04 14:36 | 50.56699 | 5.36968 | 22899 ft | 384 kts | 111° |
| 2026-05-04 14:36 | 50.55876 | 5.40986 | 23466 ft | 388 kts | 112° |
| 2026-05-04 14:36 | 50.55148 | 5.44535 | 23885 ft | 391 kts | 112° |
| 2026-05-04 14:37 | 50.54310 | 5.48617 | 24372 ft | 394 kts | 112° |
| 2026-05-04 14:37 | 50.53464 | 5.52730 | 24873 ft | 396 kts | 112° |
| 2026-05-04 14:37 | 50.52628 | 5.56865 | 25361 ft | 400 kts | 109° |
| 2026-05-04 14:37 | 50.52302 | 5.61248 | 25826 ft | 411 kts | 91° |
| 2026-05-04 14:38 | 50.52833 | 5.65699 | 26301 ft | 421 kts | 73° |
| 2026-05-04 14:38 | 50.54091 | 5.69872 | 26748 ft | 427 kts | 65° |
| 2026-05-04 14:38 | 50.55470 | 5.74021 | 27139 ft | 430 kts | 65° |
| 2026-05-04 14:38 | 50.56869 | 5.78203 | 27577 ft | 433 kts | 65° |
| 2026-05-04 14:39 | 50.58285 | 5.82403 | 28009 ft | 436 kts | 65° |
| 2026-05-04 14:39 | 50.59709 | 5.86623 | 28414 ft | 439 kts | 65° |
| 2026-05-04 14:39 | 50.61147 | 5.90884 | 28843 ft | 442 kts | 65° |
| 2026-05-04 14:40 | 50.64043 | 5.99486 | 29631 ft | 447 kts | 65° |
| 2026-05-04 14:40 | 50.65496 | 6.03812 | 30005 ft | 450 kts | 65° |
| 2026-05-04 14:40 | 50.66961 | 6.08183 | 30310 ft | 453 kts | 65° |
| 2026-05-04 14:40 | 50.68437 | 6.12589 | 30602 ft | 456 kts | 65° |
| 2026-05-04 14:41 | 50.69926 | 6.17019 | 30916 ft | 458 kts | 65° |
| 2026-05-04 14:41 | 50.71434 | 6.21468 | 31244 ft | 461 kts | 62° |
| 2026-05-04 14:41 | 50.75799 | 6.28974 | 31821 ft | 470 kts | 44° |
| 2026-05-04 14:42 | 50.80599 | 6.36072 | 32392 ft | 476 kts | 44° |
| 2026-05-04 14:42 | 50.83034 | 6.39635 | 32679 ft | 479 kts | 43° |
| 2026-05-04 14:42 | 50.85488 | 6.43223 | 32995 ft | 481 kts | 43° |
| 2026-05-04 14:43 | 50.87943 | 6.46817 | 33357 ft | 481 kts | 43° |
| 2026-05-04 14:43 | 50.90396 | 6.50412 | 33753 ft | 480 kts | 43° |
| 2026-05-04 14:43 | 50.92846 | 6.54006 | 34237 ft | 478 kts | 43° |
| 2026-05-04 14:43 | 50.95253 | 6.57545 | 34638 ft | 478 kts | 43° |
| 2026-05-04 14:44 | 50.97722 | 6.61181 | 34958 ft | 480 kts | 43° |
| 2026-05-04 14:44 | 51.00172 | 6.64794 | 35008 ft | 486 kts | 43° |
| 2026-05-04 14:44 | 51.04598 | 6.72767 | 34990 ft | 485 kts | 54° |
| 2026-05-04 14:45 | 51.08676 | 6.81339 | 34984 ft | 486 kts | 54° |
| 2026-05-04 14:45 | 51.12739 | 6.89929 | 34996 ft | 486 kts | 54° |
| 2026-05-04 14:46 | 51.16792 | 6.98532 | 34998 ft | 488 kts | 54° |
| 2026-05-04 14:46 | 51.20856 | 7.07184 | 34970 ft | 487 kts | 54° |
| 2026-05-04 14:47 | 51.24912 | 7.15849 | 34959 ft | 487 kts | 54° |
| 2026-05-04 14:47 | 51.28956 | 7.24517 | 34974 ft | 487 kts | 54° |
| 2026-05-04 14:48 | 51.32999 | 7.33213 | 34958 ft | 487 kts | 54° |
| 2026-05-04 14:48 | 51.36734 | 7.42219 | 34931 ft | 485 kts | 70° |
| 2026-05-04 14:49 | 51.38616 | 7.52545 | 34941 ft | 485 kts | 77° |
| 2026-05-04 14:49 | 51.40328 | 7.62927 | 34962 ft | 485 kts | 78° |
| 2026-05-04 14:50 | 51.41999 | 7.73393 | 34958 ft | 484 kts | 78° |
| 2026-05-04 14:50 | 51.43652 | 7.83845 | 34960 ft | 484 kts | 78° |
| 2026-05-04 14:51 | 51.45298 | 7.94315 | 34961 ft | 484 kts | 78° |
| 2026-05-04 14:51 | 51.46931 | 8.04774 | 34966 ft | 484 kts | 78° |
| 2026-05-04 14:52 | 51.48558 | 8.15261 | 34960 ft | 484 kts | 79° |
| 2026-05-04 14:52 | 51.50175 | 8.25747 | 34968 ft | 484 kts | 78° |
| 2026-05-04 14:53 | 51.51784 | 8.36255 | 34968 ft | 485 kts | 78° |
| 2026-05-04 14:53 | 51.53386 | 8.46786 | 34961 ft | 488 kts | 78° |
| 2026-05-04 14:54 | 51.54978 | 8.57313 | 34972 ft | 488 kts | 79° |
| 2026-05-04 14:54 | 51.56569 | 8.67910 | 34963 ft | 488 kts | 79° |
| 2026-05-04 14:55 | 51.58146 | 8.78486 | 34970 ft | 488 kts | 78° |
| 2026-05-04 14:55 | 51.59719 | 8.89102 | 34971 ft | 488 kts | 79° |
| 2026-05-04 14:56 | 51.61283 | 8.99729 | 34966 ft | 488 kts | 79° |
| 2026-05-04 14:56 | 51.62834 | 9.10349 | 34965 ft | 488 kts | 79° |
| 2026-05-04 14:57 | 51.64373 | 9.20954 | 34957 ft | 487 kts | 79° |
| 2026-05-04 14:57 | 51.65905 | 9.31578 | 34949 ft | 487 kts | 79° |
| 2026-05-04 14:58 | 51.67432 | 9.42215 | 34968 ft | 488 kts | 79° |
| 2026-05-04 14:58 | 51.68706 | 9.51129 | 34956 ft | 492 kts | 79° |
| 2026-05-04 14:59 | 51.70512 | 9.63586 | 34954 ft | 492 kts | 79° |
| 2026-05-04 15:00 | 51.72825 | 9.79703 | 34957 ft | 492 kts | 78° |
| 2026-05-04 15:00 | 51.74360 | 9.90483 | 34959 ft | 493 kts | 78° |
| 2026-05-04 15:01 | 51.76635 | 10.06622 | 34959 ft | 492 kts | 79° |
| 2026-05-04 15:01 | 51.78139 | 10.17380 | 34971 ft | 492 kts | 79° |
| 2026-05-04 15:02 | 51.79630 | 10.28123 | 34961 ft | 492 kts | 79° |
| 2026-05-04 15:02 | 51.81114 | 10.38899 | 34970 ft | 492 kts | 79° |
| 2026-05-04 15:03 | 51.82593 | 10.49702 | 34977 ft | 493 kts | 79° |
| 2026-05-04 15:03 | 51.84066 | 10.60542 | 34974 ft | 494 kts | 79° |
| 2026-05-04 15:04 | 51.85527 | 10.71387 | 34972 ft | 494 kts | 79° |
| 2026-05-04 15:04 | 51.86978 | 10.82224 | 34969 ft | 492 kts | 79° |
| 2026-05-04 15:05 | 51.88409 | 10.93014 | 34969 ft | 490 kts | 79° |
| 2026-05-04 15:05 | 51.89832 | 11.03815 | 34969 ft | 491 kts | 79° |
| 2026-05-04 15:06 | 51.91225 | 11.14456 | 34976 ft | 491 kts | 79° |
| 2026-05-04 15:07 | 51.93091 | 11.28854 | 34966 ft | 490 kts | 79° |
| 2026-05-04 15:07 | 51.94466 | 11.39558 | 34964 ft | 489 kts | 79° |
| 2026-05-04 15:08 | 51.95837 | 11.50312 | 34967 ft | 489 kts | 79° |
| 2026-05-04 15:08 | 51.97197 | 11.61051 | 34969 ft | 491 kts | 79° |
| 2026-05-04 15:09 | 51.98558 | 11.71866 | 34975 ft | 491 kts | 79° |
| 2026-05-04 15:09 | 51.99600 | 11.82791 | 34956 ft | 488 kts | 90° |
| 2026-05-04 15:10 | 52.00149 | 11.99203 | 34965 ft | 489 kts | 89° |
| 2026-05-04 15:11 | 52.00673 | 12.15713 | 34966 ft | 489 kts | 89° |
| 2026-05-04 15:11 | 52.01006 | 12.26721 | 34966 ft | 488 kts | 89° |
| 2026-05-04 15:12 | 52.01332 | 12.37712 | 34957 ft | 487 kts | 89° |
| 2026-05-04 15:12 | 52.01645 | 12.48680 | 34954 ft | 487 kts | 89° |
| 2026-05-04 15:13 | 52.01947 | 12.59657 | 34957 ft | 487 kts | 89° |
| 2026-05-04 15:13 | 52.02240 | 12.70634 | 34954 ft | 487 kts | 90° |
| 2026-05-04 15:14 | 52.02523 | 12.81594 | 34955 ft | 487 kts | 90° |
| 2026-05-04 15:14 | 52.02795 | 12.92572 | 34948 ft | 486 kts | 90° |
| 2026-05-04 15:15 | 52.03057 | 13.03531 | 34949 ft | 486 kts | 90° |
| 2026-05-04 15:15 | 52.03308 | 13.14490 | 34964 ft | 486 kts | 90° |
| 2026-05-04 15:16 | 52.03667 | 13.30966 | 34954 ft | 488 kts | 90° |
| 2026-05-04 15:17 | 52.04004 | 13.47488 | 34954 ft | 488 kts | 90° |
| 2026-05-04 15:17 | 52.04318 | 13.63978 | 34954 ft | 488 kts | 90° |
| 2026-05-04 15:18 | 52.04514 | 13.74985 | 34947 ft | 488 kts | 90° |
| 2026-05-04 15:19 | 52.04789 | 13.91509 | 34946 ft | 487 kts | 90° |
| 2026-05-04 15:19 | 52.05039 | 14.07921 | 34940 ft | 487 kts | 90° |
| 2026-05-04 15:20 | 52.05195 | 14.19000 | 34943 ft | 487 kts | 90° |
| 2026-05-04 15:20 | 52.05339 | 14.29932 | 34941 ft | 487 kts | 91° |
| 2026-05-04 15:21 | 52.05473 | 14.40915 | 34943 ft | 487 kts | 91° |
| 2026-05-04 15:22 | 52.05660 | 14.57425 | 34941 ft | 487 kts | 91° |
| 2026-05-04 15:22 | 52.05829 | 14.73929 | 34936 ft | 487 kts | 90° |
| 2026-05-04 15:23 | 52.06336 | 14.84905 | 34941 ft | 488 kts | 87° |
| 2026-05-04 15:23 | 52.06824 | 14.95895 | 34932 ft | 488 kts | 87° |
| 2026-05-04 15:24 | 52.07744 | 15.17898 | 34934 ft | 488 kts | 88° |
| 2026-05-04 15:25 | 52.08187 | 15.28880 | 34935 ft | 488 kts | 88° |
| 2026-05-04 15:26 | 52.08836 | 15.45398 | 34933 ft | 487 kts | 88° |
| 2026-05-04 15:26 | 52.09460 | 15.61838 | 34936 ft | 486 kts | 87° |
| 2026-05-04 15:27 | 52.10058 | 15.78244 | 34937 ft | 486 kts | 87° |
| 2026-05-04 15:28 | 52.10635 | 15.94704 | 34925 ft | 486 kts | 87° |
| 2026-05-04 15:29 | 52.11186 | 16.11115 | 34938 ft | 485 kts | 87° |
| 2026-05-04 15:30 | 52.12387 | 16.49450 | 34928 ft | 485 kts | 88° |
| 2026-05-04 15:31 | 52.12867 | 16.65888 | 34930 ft | 484 kts | 88° |
| 2026-05-04 15:32 | 52.15090 | 16.92998 | 34929 ft | 484 kts | 81° |
| 2026-05-04 15:34 | 52.17743 | 17.20001 | 34927 ft | 482 kts | 81° |
| 2026-05-04 15:34 | 52.19293 | 17.36094 | 34926 ft | 482 kts | 81° |
| 2026-05-04 15:35 | 52.20831 | 17.52298 | 34919 ft | 482 kts | 81° |
| 2026-05-04 15:36 | 52.22341 | 17.68460 | 34925 ft | 481 kts | 81° |
| 2026-05-04 15:36 | 52.23337 | 17.79255 | 34923 ft | 481 kts | 81° |
| 2026-05-04 15:37 | 52.24323 | 17.90052 | 34924 ft | 481 kts | 81° |
| 2026-05-04 15:37 | 52.25300 | 18.00856 | 34925 ft | 481 kts | 81° |
| 2026-05-04 15:38 | 52.26262 | 18.11629 | 34930 ft | 480 kts | 82° |
| 2026-05-04 15:38 | 52.27213 | 18.22395 | 34923 ft | 479 kts | 82° |
| 2026-05-04 15:39 | 52.28156 | 18.33170 | 34921 ft | 479 kts | 82° |
| 2026-05-04 15:40 | 52.29549 | 18.49307 | 34926 ft | 480 kts | 82° |
| 2026-05-04 15:40 | 52.30470 | 18.60120 | 34921 ft | 481 kts | 82° |
| 2026-05-04 15:41 | 52.31378 | 18.70910 | 34930 ft | 478 kts | 82° |
| 2026-05-04 15:41 | 52.32271 | 18.81660 | 34930 ft | 478 kts | 82° |
| 2026-05-04 15:42 | 52.33155 | 18.92414 | 34745 ft | 477 kts | 83° |
| 2026-05-04 15:42 | 52.33468 | 18.97786 | 33832 ft | 481 kts | 85° |
| 2026-05-04 15:42 | 52.33757 | 19.03319 | 32460 ft | 493 kts | 85° |
| 2026-05-04 15:42 | 52.34062 | 19.08937 | 31477 ft | 496 kts | 85° |
| 2026-05-04 15:43 | 52.34365 | 19.14479 | 30849 ft | 482 kts | 85° |
| 2026-05-04 15:43 | 52.34658 | 19.19873 | 30079 ft | 471 kts | 85° |
| 2026-05-04 15:43 | 52.34928 | 19.25162 | 28901 ft | 466 kts | 86° |
| 2026-05-04 15:43 | 52.35190 | 19.30440 | 27937 ft | 468 kts | 86° |
| 2026-05-04 15:44 | 52.35455 | 19.35797 | 27124 ft | 475 kts | 86° |
| 2026-05-04 15:44 | 52.35720 | 19.41196 | 26188 ft | 476 kts | 86° |
| 2026-05-04 15:44 | 52.35983 | 19.46593 | 25200 ft | 477 kts | 86° |
| 2026-05-04 15:44 | 52.36244 | 19.52002 | 24161 ft | 477 kts | 86° |
| 2026-05-04 15:45 | 52.36498 | 19.57331 | 23023 ft | 474 kts | 86° |
| 2026-05-04 15:45 | 52.36752 | 19.62682 | 21745 ft | 468 kts | 86° |
| 2026-05-04 15:45 | 52.36998 | 19.67935 | 20538 ft | 461 kts | 86° |
| 2026-05-04 15:45 | 52.37241 | 19.73109 | 19516 ft | 451 kts | 85° |
| 2026-05-04 15:46 | 52.37854 | 19.78018 | 18962 ft | 432 kts | 71° |
| 2026-05-04 15:46 | 52.38828 | 19.82531 | 18581 ft | 411 kts | 70° |
| 2026-05-04 15:46 | 52.39806 | 19.86812 | 18292 ft | 392 kts | 69° |
| 2026-05-04 15:46 | 52.40765 | 19.90876 | 17994 ft | 374 kts | 68° |
| 2026-05-04 15:47 | 52.41694 | 19.94752 | 17741 ft | 357 kts | 68° |
| 2026-05-04 15:47 | 52.42589 | 19.98451 | 17518 ft | 340 kts | 68° |
| 2026-05-04 15:47 | 52.43446 | 20.01978 | 17315 ft | 326 kts | 68° |
| 2026-05-04 15:47 | 52.44279 | 20.05404 | 17123 ft | 330 kts | 68° |
| 2026-05-04 15:48 | 52.45143 | 20.08964 | 16912 ft | 339 kts | 68° |
| 2026-05-04 15:48 | 52.46020 | 20.12579 | 16750 ft | 344 kts | 68° |
| 2026-05-04 15:48 | 52.47791 | 20.19892 | 16426 ft | 345 kts | 69° |
| 2026-05-04 15:49 | 52.48675 | 20.23552 | 16267 ft | 344 kts | 68° |
| 2026-05-04 15:49 | 52.49549 | 20.27179 | 16108 ft | 344 kts | 68° |
| 2026-05-04 15:49 | 52.50346 | 20.30885 | 15790 ft | 346 kts | 80° |
| 2026-05-04 15:49 | 52.50389 | 20.34780 | 15456 ft | 338 kts | 103° |
| 2026-05-04 15:50 | 52.49631 | 20.38336 | 15176 ft | 327 kts | 121° |
| 2026-05-04 15:50 | 52.48576 | 20.41624 | 14857 ft | 324 kts | 122° |
| 2026-05-04 15:50 | 52.47510 | 20.44836 | 14535 ft | 321 kts | 123° |
| 2026-05-04 15:50 | 52.46426 | 20.48031 | 14218 ft | 319 kts | 124° |
| 2026-05-04 15:51 | 52.45351 | 20.51158 | 13884 ft | 318 kts | 124° |
| 2026-05-04 15:51 | 52.44248 | 20.54337 | 13523 ft | 316 kts | 124° |
| 2026-05-04 15:51 | 52.43173 | 20.57421 | 13184 ft | 315 kts | 124° |
| 2026-05-04 15:51 | 52.42439 | 20.59519 | 12942 ft | 313 kts | 124° |
| 2026-05-04 15:52 | 52.41360 | 20.62600 | 12610 ft | 311 kts | 124° |
| 2026-05-04 15:52 | 52.39937 | 20.66654 | 12188 ft | 308 kts | 124° |
| 2026-05-04 15:52 | 52.39219 | 20.68698 | 11973 ft | 306 kts | 124° |
| 2026-05-04 15:52 | 52.38154 | 20.71723 | 11668 ft | 308 kts | 124° |
| 2026-05-04 15:53 | 52.37082 | 20.74764 | 11406 ft | 308 kts | 124° |
| 2026-05-04 15:53 | 52.36011 | 20.77800 | 11130 ft | 308 kts | 124° |
| 2026-05-04 15:53 | 52.34948 | 20.80808 | 10862 ft | 307 kts | 124° |
| 2026-05-04 15:53 | 52.33878 | 20.83833 | 10597 ft | 307 kts | 124° |
| 2026-05-04 15:54 | 52.32811 | 20.86846 | 10322 ft | 305 kts | 124° |
| 2026-05-04 15:54 | 52.31754 | 20.89826 | 10044 ft | 302 kts | 124° |
| 2026-05-04 15:54 | 52.30705 | 20.92783 | 9765 ft | 299 kts | 124° |
| 2026-05-04 15:54 | 52.29664 | 20.95710 | 9468 ft | 296 kts | 124° |
| 2026-05-04 15:55 | 52.28647 | 20.98569 | 9186 ft | 293 kts | 124° |
| 2026-05-04 15:55 | 52.27613 | 21.01401 | 8916 ft | 288 kts | 129° |
| 2026-05-04 15:55 | 52.26172 | 21.03528 | 8614 ft | 276 kts | 154° |
| 2026-05-04 15:55 | 52.24502 | 21.05023 | 8392 ft | 273 kts | 155° |
| 2026-05-04 15:56 | 52.22837 | 21.06509 | 8168 ft | 273 kts | 155° |
| 2026-05-04 15:56 | 52.21160 | 21.07986 | 7923 ft | 272 kts | 156° |
| 2026-05-04 15:56 | 52.19504 | 21.09431 | 7670 ft | 268 kts | 156° |
| 2026-05-04 15:56 | 52.17873 | 21.10844 | 7434 ft | 265 kts | 156° |
| 2026-05-04 15:57 | 52.16257 | 21.12243 | 7200 ft | 262 kts | 156° |
| 2026-05-04 15:57 | 52.14653 | 21.13636 | 6946 ft | 260 kts | 156° |
| 2026-05-04 15:57 | 52.13068 | 21.15028 | 6692 ft | 258 kts | 156° |
| 2026-05-04 15:57 | 52.11497 | 21.16405 | 6471 ft | 255 kts | 156° |
| 2026-05-04 15:58 | 52.09943 | 21.17764 | 6257 ft | 251 kts | 156° |
| 2026-05-04 15:58 | 52.08415 | 21.19098 | 6063 ft | 247 kts | 155° |
| 2026-05-04 15:58 | 52.06916 | 21.20408 | 5844 ft | 243 kts | 155° |
| 2026-05-04 15:58 | 52.05437 | 21.21698 | 5633 ft | 239 kts | 155° |
| 2026-05-04 15:59 | 52.03976 | 21.22971 | 5431 ft | 239 kts | 155° |
| 2026-05-04 15:59 | 52.02452 | 21.24078 | 5194 ft | 243 kts | 171° |
| 2026-05-04 15:59 | 52.00766 | 21.24078 | 4855 ft | 245 kts | 197° |
| 2026-05-04 15:59 | 51.99145 | 21.23179 | 4519 ft | 249 kts | 203° |
| 2026-05-04 16:00 | 51.97687 | 21.21703 | 4132 ft | 248 kts | 228° |
| 2026-05-04 16:00 | 51.96809 | 21.19328 | 3782 ft | 249 kts | 253° |
| 2026-05-04 16:00 | 51.96686 | 21.16529 | 3418 ft | 253 kts | 279° |
| 2026-05-04 16:00 | 51.97356 | 21.13957 | 3184 ft | 252 kts | 305° |
| 2026-05-04 16:01 | 51.98685 | 21.12142 | 3095 ft | 248 kts | 329° |
| 2026-05-04 16:01 | 52.00183 | 21.10953 | 3090 ft | 237 kts | 330° |
| 2026-05-04 16:01 | 52.01627 | 21.09738 | 3055 ft | 232 kts | 329° |
| 2026-05-04 16:01 | 52.03064 | 21.08481 | 3001 ft | 232 kts | 328° |
| 2026-05-04 16:02 | 52.04476 | 21.07254 | 2692 ft | 234 kts | 328° |
| 2026-05-04 16:02 | 52.05904 | 21.06010 | 2453 ft | 231 kts | 329° |
| 2026-05-04 16:02 | 52.08646 | 21.03627 | 1860 ft | 207 kts | 328° |
| 2026-05-04 16:03 | 52.09168 | 21.03171 | 1752 ft | 201 kts | 329° |
| 2026-05-04 16:03 | 52.09352 | 21.03011 | 1707 ft | 198 kts | 328° |
| 2026-05-04 16:03 | 52.10524 | 21.01991 | 1362 ft | 188 kts | 329° |
| 2026-05-04 16:03 | 52.11635 | 21.01026 | 1116 ft | 174 kts | 329° |
| 2026-05-04 16:04 | 52.12665 | 21.00212 | 906 ft | 153 kts | 327° |
| 2026-05-04 16:04 | 52.14402 | 20.98637 | 614 ft | 142 kts | 325° |
| 2026-05-04 16:04 | 52.15269 | 20.97866 | 436 ft | 140 kts | 327° |
| 2026-05-04 16:05 | 52.16080 | 20.97158 | 356 ft | 117 kts | 325° |
| 2026-05-04 16:05 | 52.16566 | 20.96715 | 360 ft | 57 kts | 332° |
| 2026-05-04 16:05 | 52.17028 | 20.96517 | 358 ft | 14 kts | 2° |
| 2026-05-04 16:06 | 52.17101 | 20.96591 | 356 ft | 12 kts | 37° |
| 2026-05-04 16:06 | 52.17338 | 20.96450 | 361 ft | 19 kts | 327° |
| 2026-05-04 16:07 | 52.17490 | 20.96310 | 355 ft | 18 kts | 332° |
| 2026-05-04 16:07 | 52.17782 | 20.96055 | 360 ft | 0 kts | 329° |
| 2026-05-04 16:08 | 52.17784 | 20.96056 | 362 ft | 1 kts | 357° |
| 2026-05-04 16:08 | 52.17837 | 20.96242 | 359 ft | 6 kts | 62° |
| 2026-05-04 16:09 | 52.17868 | 20.96239 | 360 ft | 4 kts | 327° |
| 2026-05-04 16:09 | 52.17885 | 20.96222 | 357 ft | 0 kts | 330° |